Time;durP1;ratioP1;P1;durP2;ratioP2;P2;SDS_P1;SDS_P2;PMS_P1;PMS_P2;Temp;Humidity;BMP_temperature;BMP_pressure;BME280_temperature;BME280_humidity;BME280_pressure;Samples;Min_cycle;Max_cycle;Signal;HPM_P1;HPM_P2
2021/07/27 00:01:29;;;;;;;0.80;0.73;;;;;;;20.19;72.74;98662.88;5134840;27;41703;-81
2021/07/27 00:03:57;;;;;;;0.87;0.67;;;;;;;20.13;72.73;98660.84;5128809;27;41497;-80
2021/07/27 00:06:24;;;;;;;1.10;0.60;;;;;;;20.18;72.87;98669.25;5144474;27;40111;-82
2021/07/27 00:08:52;;;;;;;0.63;0.63;;;;;;;20.03;72.72;98650.19;5134155;27;41916;-81
2021/07/27 00:11:19;;;;;;;0.60;0.60;;;;;;;20.12;72.38;98667.22;5152121;27;42782;-81
2021/07/27 00:13:48;;;;;;;1.00;0.83;;;;;;;20.11;72.64;98668.22;5152529;27;42945;-81
2021/07/27 00:16:15;;;;;;;1.07;0.97;;;;;;;20.00;72.33;98649.69;5152219;27;41052;-80
2021/07/27 00:18:43;;;;;;;0.67;0.63;;;;;;;20.08;72.25;98668.53;5133768;27;40740;-81
2021/07/27 00:21:10;;;;;;;0.80;0.70;;;;;;;20.06;72.23;98665.16;5134791;27;41756;-81
2021/07/27 00:23:38;;;;;;;0.70;0.70;;;;;;;19.95;72.02;98652.00;5138746;27;41724;-81
2021/07/27 00:26:12;;;;;;;0.77;0.73;;;;;;;19.96;71.85;98642.94;5132076;27;40105;-82
2021/07/27 00:28:39;;;;;;;0.63;0.63;;;;;;;20.03;71.74;98660.09;5130515;27;40668;-81
2021/07/27 00:31:15;;;;;;;0.70;0.70;;;;;;;19.98;71.83;98657.06;5113938;27;41984;-80
2021/07/27 00:33:43;;;;;;;0.97;0.80;;;;;;;19.93;71.94;98662.06;5113432;27;41342;-81
2021/07/27 00:36:10;;;;;;;1.10;1.00;;;;;;;19.93;71.95;98664.75;5131066;27;39772;-81
2021/07/27 00:38:38;;;;;;;0.70;0.70;;;;;;;19.91;72.21;98667.59;5112766;27;40757;-81
2021/07/27 00:41:05;;;;;;;1.27;0.90;;;;;;;19.86;72.24;98658.34;5113895;27;43000;-81
2021/07/27 00:43:33;;;;;;;0.60;0.60;;;;;;;19.79;71.85;98652.72;5130369;27;43106;-81
2021/07/27 00:46:01;;;;;;;2.00;1.33;;;;;;;19.77;72.16;98664.66;5113643;27;39949;-81
2021/07/27 00:48:30;;;;;;;1.37;0.87;;;;;;;19.52;72.35;98626.91;5132184;27;42747;-80
2021/07/27 00:50:58;;;;;;;0.70;0.70;;;;;;;19.80;71.84;98672.38;5132023;27;43620;-81
2021/07/27 00:53:25;;;;;;;0.60;0.60;;;;;;;19.68;72.13;98661.91;5114028;27;41495;-81
2021/07/27 00:55:54;;;;;;;0.97;0.80;;;;;;;19.75;72.54;98672.03;5130001;27;41198;-81
2021/07/27 00:58:22;;;;;;;0.73;0.73;;;;;;;19.70;73.07;98665.28;5113703;27;41023;-82
2021/07/27 01:00:50;;;;;;;0.80;0.70;;;;;;;19.70;72.68;98662.59;5130093;27;41767;-81
2021/07/27 01:03:17;;;;;;;0.50;0.50;;;;;;;19.69;72.48;98652.84;5131079;27;42289;-81
2021/07/27 01:05:47;;;;;;;1.00;0.67;;;;;;;19.68;72.27;98661.06;5131881;27;40319;-81
2021/07/27 01:08:15;;;;;;;1.10;0.90;;;;;;;19.64;71.83;98652.50;5131222;27;41808;-81
2021/07/27 01:10:42;;;;;;;0.50;0.50;;;;;;;19.57;72.23;98646.06;5129356;27;42648;-81
2021/07/27 01:13:10;;;;;;;0.67;0.67;;;;;;;19.60;72.08;98652.97;5130342;27;42295;-82
2021/07/27 01:15:37;;;;;;;1.03;1.03;;;;;;;19.58;71.99;98650.44;5129480;27;38933;-81
2021/07/27 01:18:07;;;;;;;0.60;0.60;;;;;;;19.56;72.31;98652.44;5129536;27;41753;-81
2021/07/27 01:37:32;;;;;;;0.93;0.70;;;;;;;19.35;72.20;98649.22;5149847;27;39497;-81
2021/07/27 01:40:02;;;;;;;0.67;0.67;;;;;;;19.30;71.96;98652.38;5151232;27;42141;-81
2021/07/27 01:42:34;;;;;;;0.50;0.50;;;;;;;19.29;72.46;98655.19;5150114;27;43289;-81
2021/07/27 01:45:09;;;;;;;0.67;0.67;;;;;;;19.26;72.33;98656.38;5133506;27;41302;-81
2021/07/27 01:47:37;;;;;;;0.87;0.63;;;;;;;19.18;72.42;98647.41;5149478;27;40217;-81
2021/07/27 01:50:05;;;;;;;0.90;0.80;;;;;;;19.21;72.48;98665.88;5150912;27;40992;-81
2021/07/27 01:52:33;;;;;;;1.07;0.70;;;;;;;19.20;72.43;98669.56;5152027;27;43038;-81
2021/07/27 01:55:08;;;;;;;0.80;0.80;;;;;;;19.18;72.58;98663.50;5133854;27;42520;-80
2021/07/27 01:57:35;;;;;;;0.60;0.60;;;;;;;19.05;72.68;98647.78;5149891;27;39201;-80
2021/07/27 02:00:09;;;;;;;1.10;1.00;;;;;;;19.10;72.48;98658.91;5132553;27;41975;-80
2021/07/27 02:02:36;;;;;;;0.90;0.90;;;;;;;19.07;72.48;98663.75;5149485;27;42169;-81
2021/07/27 02:05:04;;;;;;;0.40;0.40;;;;;;;19.04;72.60;98669.44;5132677;27;42875;-80
2021/07/27 02:07:32;;;;;;;0.60;0.60;;;;;;;18.94;72.27;98656.91;5150408;27;40169;-80
2021/07/27 02:10:06;;;;;;;0.50;0.50;;;;;;;18.87;72.68;98647.81;5150378;27;42414;-80
2021/07/27 02:12:40;;;;;;;0.70;0.70;;;;;;;18.95;72.45;98663.13;5149271;27;42143;-80
2021/07/27 02:15:21;;;;;;;0.93;0.73;;;;;;;18.90;72.21;98665.44;5131876;27;41466;-80
2021/07/27 02:17:49;;;;;;;0.57;0.57;;;;;;;18.85;72.50;98668.59;5150126;27;40121;-81
2021/07/27 02:20:17;;;;;;;0.90;0.80;;;;;;;18.85;73.69;98673.09;5150849;27;41822;-80
2021/07/27 02:22:44;;;;;;;0.50;0.50;;;;;;;18.84;73.89;98671.41;5149757;27;43817;-81
2021/07/27 02:25:14;;;;;;;0.70;0.70;;;;;;;18.83;73.80;98678.63;5149892;27;43230;-80
2021/07/27 02:27:42;;;;;;;0.77;0.77;;;;;;;18.82;73.69;98676.94;5133549;27;39262;-80
2021/07/27 02:30:10;;;;;;;1.40;0.97;;;;;;;18.73;73.61;98659.06;5159954;27;40658;-81
2021/07/27 02:32:37;;;;;;;0.60;0.60;;;;;;;18.82;73.64;98676.94;5141083;27;41987;-81
2021/07/27 02:35:07;;;;;;;1.00;0.80;;;;;;;18.85;73.79;98689.19;5160065;27;41408;-80
2021/07/27 02:37:35;;;;;;;0.83;0.83;;;;;;;18.83;73.35;98684.00;5144034;27;40145;-81
2021/07/27 02:40:04;;;;;;;0.90;0.90;;;;;;;18.81;73.63;98680.59;5146735;27;40312;-79
2021/07/27 02:42:34;;;;;;;0.80;0.67;;;;;;;18.81;73.41;98682.44;5146566;27;41787;-78
2021/07/27 02:45:03;;;;;;;1.07;0.50;;;;;;;18.79;73.52;98679.09;5164265;27;42226;-78
2021/07/27 02:47:31;;;;;;;0.60;0.60;;;;;;;18.77;73.59;98681.09;5165586;27;40113;-79
2021/07/27 02:49:58;;;;;;;0.80;0.80;;;;;;;18.76;73.69;98684.75;5156098;27;42388;-79
2021/07/27 02:52:26;;;;;;;0.60;0.50;;;;;;;18.74;73.17;98684.06;5135930;27;42007;-78
2021/07/27 02:54:53;;;;;;;0.70;0.70;;;;;;;18.71;73.35;98682.53;5153283;27;42868;-78
2021/07/27 02:57:22;;;;;;;0.50;0.43;;;;;;;18.67;72.88;98676.59;5153238;27;40116;-80
2021/07/27 02:59:50;;;;;;;1.77;0.87;;;;;;;18.57;73.26;98661.53;5135450;27;41009;-81
2021/07/27 03:02:20;;;;;;;1.17;0.97;;;;;;;18.63;73.21;98685.97;5134861;27;42857;-80
2021/07/27 03:04:48;;;;;;;0.80;0.80;;;;;;;18.61;73.14;98692.47;5135409;27;41174;-82
2021/07/27 03:07:19;;;;;;;0.80;0.80;;;;;;;18.55;73.18;98684.97;5135329;27;39098;-81
2021/07/27 03:12:29;;;;;;;0.93;0.53;;;;;;;18.50;72.72;98696.19;5143108;27;43028;-80
2021/07/27 03:14:59;;;;;;;1.07;0.97;;;;;;;18.45;73.11;98692.25;5132060;27;41142;-80
2021/07/27 03:17:27;;;;;;;0.90;0.80;;;;;;;18.41;72.99;98696.22;5131353;27;39117;-80
2021/07/27 03:19:55;;;;;;;0.60;0.60;;;;;;;18.36;73.14;98695.81;5132046;27;42097;-81
2021/07/27 03:22:23;;;;;;;1.07;1.07;;;;;;;18.33;72.81;98693.44;5132058;27;41791;-80
2021/07/27 03:24:51;;;;;;;0.63;0.63;;;;;;;18.29;72.87;98688.38;5152758;27;42512;-80
2021/07/27 03:27:18;;;;;;;1.40;0.93;;;;;;;18.28;73.95;98692.06;5153245;27;41138;-80
2021/07/27 03:29:46;;;;;;;0.67;0.67;;;;;;;18.25;74.03;98692.34;5152803;27;42848;-80
2021/07/27 03:32:15;;;;;;;1.20;1.10;;;;;;;18.25;73.74;98695.03;5153523;27;43290;-80
2021/07/27 03:34:42;;;;;;;0.73;0.73;;;;;;;18.19;74.00;98686.72;5134812;27;41704;-80
2021/07/27 03:37:10;;;;;;;2.60;0.70;;;;;;;18.19;74.06;98682.19;5152255;27;39871;-80
2021/07/27 03:39:38;;;;;;;0.80;0.80;;;;;;;18.13;74.76;98676.59;5152310;27;42765;-80
2021/07/27 03:42:05;;;;;;;1.73;1.10;;;;;;;18.21;75.00;98690.94;5153110;27;42831;-80
2021/07/27 03:44:33;;;;;;;1.30;0.77;;;;;;;18.16;74.82;98682.53;5152099;27;41260;-81
2021/07/27 03:47:08;;;;;;;0.70;0.70;;;;;;;18.13;74.37;98677.44;5151519;27;40323;-80
2021/07/27 03:49:37;;;;;;;1.33;0.60;;;;;;;18.11;74.80;98683.94;5152369;27;42095;-81
2021/07/27 03:52:05;;;;;;;0.90;0.87;;;;;;;18.22;74.65;98705.19;5135288;27;42072;-82
2021/07/27 03:54:34;;;;;;;0.70;0.70;;;;;;;18.23;74.54;98704.19;5152310;27;41649;-79
2021/07/27 03:57:03;;;;;;;0.67;0.50;;;;;;;18.08;74.60;98685.06;5152737;27;40080;-78
2021/07/27 03:59:30;;;;;;;0.70;0.70;;;;;;;18.24;74.69;98706.75;5135168;27;41703;-79
2021/07/27 04:01:58;;;;;;;0.50;0.50;;;;;;;18.25;74.60;98705.75;5150856;27;42794;-79
2021/07/27 04:04:26;;;;;;;1.70;1.10;;;;;;;18.22;74.45;98703.38;5152757;27;42337;-79
2021/07/27 04:06:56;;;;;;;0.50;0.50;;;;;;;18.25;74.48;98703.06;5151742;27;39091;-79
2021/07/27 04:09:24;;;;;;;1.50;0.80;;;;;;;18.24;74.53;98698.69;5135157;27;41739;-79
2021/07/27 04:11:51;;;;;;;0.70;0.63;;;;;;;18.26;74.30;98710.13;5151867;27;43151;-79
2021/07/27 04:14:19;;;;;;;0.60;0.60;;;;;;;18.29;74.07;98692.91;5134818;27;41333;-79
2021/07/27 04:16:46;;;;;;;0.60;0.50;;;;;;;18.31;73.93;98704.31;5151967;27;41015;-79
2021/07/27 04:19:14;;;;;;;0.53;0.53;;;;;;;18.33;73.99;98704.16;5151993;27;42113;-78
2021/07/27 04:21:41;;;;;;;0.67;0.60;;;;;;;18.34;73.67;98698.66;5134073;27;41997;-79
2021/07/27 04:24:10;;;;;;;0.77;0.77;;;;;;;18.06;73.53;98651.38;5152698;27;42374;-79
2021/07/27 04:26:38;;;;;;;1.00;0.70;;;;;;;18.40;73.28;98706.13;5152141;27;39950;-79
2021/07/27 04:29:05;;;;;;;0.87;0.87;;;;;;;18.14;73.59;98663.06;5151652;27;41797;-79
2021/07/27 04:31:33;;;;;;;0.80;0.80;;;;;;;18.51;73.04;98707.75;5151001;27;43580;-79
2021/07/27 04:34:00;;;;;;;0.90;0.90;;;;;;;18.62;72.86;98715.63;5134529;27;42599;-79
2021/07/27 04:36:28;;;;;;;0.70;0.57;;;;;;;18.70;72.55;98717.53;5151175;27;40728;-79
2021/07/27 04:38:55;;;;;;;0.40;0.40;;;;;;;18.75;72.77;98716.09;5151431;27;41916;-78
2021/07/27 04:41:25;;;;;;;0.60;0.60;;;;;;;18.81;72.76;98707.44;5151401;27;42998;-79
2021/07/27 04:43:52;;;;;;;0.87;0.70;;;;;;;18.86;72.57;98712.34;5150030;27;41540;-79
2021/07/27 04:46:20;;;;;;;1.00;1.00;;;;;;;18.91;72.76;98716.28;5125485;27;38899;-79
2021/07/27 04:48:47;;;;;;;0.67;0.67;;;;;;;18.97;72.75;98704.09;5133806;27;40781;-78
2021/07/27 04:51:15;;;;;;;0.77;0.70;;;;;;;19.06;72.70;98703.16;5151519;27;43074;-78
2021/07/27 04:53:42;;;;;;;1.27;1.10;;;;;;;19.07;72.62;98693.28;5144796;27;42526;-79
2021/07/27 04:56:10;;;;;;;0.80;0.80;;;;;;;19.24;72.42;98705.84;5134448;27;40972;-79
2021/07/27 04:58:39;;;;;;;0.67;0.60;;;;;;;19.31;71.97;98707.75;5131242;27;42744;-80
2021/07/27 05:01:07;;;;;;;0.70;0.63;;;;;;;19.39;72.07;98704.31;5130372;27;42950;-79
2021/07/27 05:03:35;;;;;;;0.77;0.73;;;;;;;19.45;71.75;98702.84;5141208;27;41030;-80
2021/07/27 05:06:06;;;;;;;0.93;0.90;;;;;;;19.49;71.52;98693.50;5152210;27;41923;-79
2021/07/27 05:08:34;;;;;;;1.20;1.10;;;;;;;19.54;71.33;98692.03;5153860;27;41784;-81
2021/07/27 05:11:02;;;;;;;1.20;1.10;;;;;;;19.63;71.58;98693.78;5150567;27;43205;-81
2021/07/27 05:13:30;;;;;;;0.97;0.87;;;;;;;19.67;71.08;98683.56;5151841;27;42532;-80
2021/07/27 05:15:59;;;;;;;1.17;0.70;;;;;;;19.82;71.02;98694.56;5146057;27;40897;-80
2021/07/27 05:18:27;;;;;;;1.47;1.23;;;;;;;19.92;71.21;98687.25;5137547;27;40771;-80
2021/07/27 05:20:54;;;;;;;0.70;0.70;;;;;;;19.95;70.79;98668.13;5113439;27;42044;-80
2021/07/27 05:23:23;;;;;;;0.80;0.70;;;;;;;20.17;70.77;98683.69;5128630;27;42716;-80
2021/07/27 05:25:50;;;;;;;0.87;0.80;;;;;;;20.18;70.26;98669.25;5133049;27;40817;-80
2021/07/27 05:28:18;;;;;;;0.77;0.77;;;;;;;20.35;69.94;98679.09;5151120;27;42671;-80
2021/07/27 05:30:45;;;;;;;0.77;0.77;;;;;;;20.50;69.66;98687.41;5150642;27;43733;-80
2021/07/27 05:33:15;;;;;;;1.30;1.00;;;;;;;20.59;69.49;98682.88;5151258;27;43196;-80
2021/07/27 05:35:42;;;;;;;1.07;0.83;;;;;;;20.70;69.45;98680.75;5133162;27;39041;-80
2021/07/27 05:38:11;;;;;;;1.37;1.27;;;;;;;20.79;69.03;98684.28;5133326;27;40832;-79
2021/07/27 05:40:38;;;;;;;0.83;0.77;;;;;;;20.87;68.93;98681.63;5132719;27;41863;-80
2021/07/27 05:43:09;;;;;;;0.73;0.73;;;;;;;20.94;68.50;98674.56;5132803;27;41510;-85
2021/07/27 05:45:37;;;;;;;0.80;0.80;;;;;;;21.07;68.44;98674.91;5117950;27;41281;-81
2021/07/27 05:48:05;;;;;;;1.67;1.13;;;;;;;21.06;68.06;98669.69;5149820;27;41743;-84
2021/07/27 05:50:34;;;;;;;1.27;1.10;;;;;;;21.22;67.96;98687.75;5112039;27;41667;-82
2021/07/27 05:53:02;;;;;;;0.63;0.63;;;;;;;21.21;67.86;98672.59;5112985;27;41369;-84
2021/07/27 05:55:30;;;;;;;1.00;0.80;;;;;;;21.38;67.74;98682.38;5115749;27;40212;-81
2021/07/27 05:57:58;;;;;;;1.30;1.17;;;;;;;21.45;67.46;98686.06;5114307;27;40638;-82
2021/07/27 06:00:25;;;;;;;0.93;0.77;;;;;;;21.57;67.46;98684.72;5112549;27;42304;-82
2021/07/27 06:02:53;;;;;;;0.93;0.93;;;;;;;21.56;67.04;98672.25;5111284;27;42623;-83
2021/07/27 06:05:21;;;;;;;0.80;0.80;;;;;;;21.72;66.60;98682.19;5135459;27;40201;-81
2021/07/27 06:07:50;;;;;;;0.80;0.73;;;;;;;21.65;66.37;98663.16;5150135;27;41853;-82
2021/07/27 06:10:18;;;;;;;0.73;0.73;;;;;;;21.78;66.04;98678.78;5132183;27;41769;-83
2021/07/27 06:12:46;;;;;;;1.80;1.23;;;;;;;21.98;65.61;98698.16;5131697;27;42290;-80
2021/07/27 06:15:13;;;;;;;0.90;0.90;;;;;;;22.10;65.62;98692.25;5139224;27;40157;-83
2021/07/27 06:17:41;;;;;;;0.97;0.77;;;;;;;22.20;64.79;98694.75;5150745;27;42097;-87
2021/07/27 06:20:10;;;;;;;1.00;0.97;;;;;;;22.29;64.72;98680.19;5132217;27;41999;-84
2021/07/27 06:22:38;;;;;;;0.77;0.77;;;;;;;22.54;63.92;98695.28;5149135;27;41992;-81
2021/07/27 06:25:10;;;;;;;0.70;0.70;;;;;;;22.75;63.47;98696.53;5132578;27;38984;-80
2021/07/27 06:27:38;;;;;;;0.90;0.70;;;;;;;22.91;63.54;98696.47;5131707;27;41052;-80
2021/07/27 06:30:09;;;;;;;0.80;0.70;;;;;;;23.04;62.76;98685.91;5134177;27;42731;-93
2021/07/27 06:32:37;;;;;;;1.03;0.73;;;;;;;23.31;62.09;98702.63;5113171;27;39968;-78
2021/07/27 06:35:05;;;;;;;4.23;1.90;;;;;;;23.37;61.93;98685.69;5145480;27;40956;-81
2021/07/27 06:37:33;;;;;;;0.47;0.47;;;;;;;23.49;61.80;98712.09;5147753;27;41240;-80
2021/07/27 06:40:02;;;;;;;0.93;0.90;;;;;;;23.54;61.46;98700.78;5143991;27;42567;-81
2021/07/27 06:42:31;;;;;;;0.73;0.70;;;;;;;23.57;60.27;98692.31;5131665;27;42204;-81
2021/07/27 06:44:59;;;;;;;1.37;1.00;;;;;;;23.26;59.84;98632.91;5088699;28;39625;-87
2021/07/27 06:47:27;;;;;;;1.10;1.00;;;;;;;23.52;60.42;98663.09;5072326;28;41531;-84
2021/07/27 06:49:54;;;;;;;0.67;0.67;;;;;;;23.94;60.47;98705.81;5089449;28;42318;-83
2021/07/27 06:52:22;;;;;;;0.93;0.93;;;;;;;24.12;59.84;98691.06;5107393;28;42335;-82
2021/07/27 06:54:50;;;;;;;0.77;0.70;;;;;;;24.58;58.87;98708.00;5105972;28;39953;-84
2021/07/27 06:57:18;;;;;;;0.80;0.73;;;;;;;25.07;57.63;98712.78;5089212;28;41755;-80
2021/07/27 06:59:47;;;;;;;0.43;0.43;;;;;;;25.44;56.29;98722.56;5089361;28;43034;-81
2021/07/27 07:02:16;;;;;;;0.70;0.70;;;;;;;25.68;55.89;98728.44;5088202;28;43123;-90
2021/07/27 07:04:44;;;;;;;0.80;0.80;;;;;;;25.77;54.62;98715.56;5073025;28;40237;-79
2021/07/27 07:07:11;;;;;;;1.40;0.97;;;;;;;25.97;54.17;98742.84;5088274;28;40797;-83
2021/07/27 07:09:39;;;;;;;0.87;0.80;;;;;;;26.28;53.35;98739.78;5087166;28;41888;-84
2021/07/27 07:12:08;;;;;;;0.70;0.70;;;;;;;26.81;52.15;98757.22;5088472;28;41080;-88
2021/07/27 07:14:35;;;;;;;1.10;0.80;;;;;;;26.82;52.30;98719.00;5088443;28;39498;-88
2021/07/27 07:17:07;;;;;;;0.80;0.80;;;;;;;27.35;50.92;98759.13;5122861;27;41742;-83
2021/07/27 07:19:35;;;;;;;0.80;0.80;;;;;;;27.65;50.85;98748.75;5132019;27;41595;-86
2021/07/27 07:22:03;;;;;;;0.80;0.77;;;;;;;27.75;49.00;98766.34;5127780;27;41323;-80
2021/07/27 07:24:31;;;;;;;0.70;0.70;;;;;;;27.71;49.36;98769.66;5120487;27;39027;-85
2021/07/27 07:26:58;;;;;;;1.47;1.10;;;;;;;27.54;49.96;98753.72;5134605;27;41044;-85
2021/07/27 07:29:26;;;;;;;1.30;1.00;;;;;;;27.48;50.56;98754.53;5150697;27;43142;-83
2021/07/27 07:31:54;;;;;;;1.20;1.10;;;;;;;27.27;50.42;98749.28;5131934;27;41148;-84
2021/07/27 07:34:22;;;;;;;1.80;0.90;;;;;;;27.32;50.64;98760.38;5134468;27;41100;-81
2021/07/27 07:36:51;;;;;;;0.90;0.87;;;;;;;27.19;50.22;98749.47;5134160;27;40841;-83
2021/07/27 07:39:19;;;;;;;0.93;0.93;;;;;;;27.15;50.07;98754.47;5153049;27;43887;-82
2021/07/27 07:41:47;;;;;;;1.33;0.90;;;;;;;27.20;49.16;98775.59;5152017;27;41147;-79
2021/07/27 07:44:14;;;;;;;1.00;0.87;;;;;;;28.20;47.64;98772.84;5141895;27;39093;-82
2021/07/27 07:46:43;;;;;;;1.07;1.00;;;;;;;28.70;47.42;98775.06;5118859;27;42091;-80
2021/07/27 07:49:10;;;;;;;1.47;1.00;;;;;;;28.69;47.05;98768.78;5152011;27;42947;-80
2021/07/27 07:51:45;;;;;;;1.43;1.10;;;;;;;28.94;47.68;98763.50;5134218;27;42051;-80
2021/07/27 07:54:13;;;;;;;1.53;1.43;;;;;;;29.03;48.11;98758.66;5142990;27;40933;-80
2021/07/27 07:56:41;;;;;;;1.83;1.10;;;;;;;28.96;46.89;98772.28;5147464;27;41696;-82
2021/07/27 07:59:08;;;;;;;0.87;0.87;;;;;;;28.73;46.59;98789.13;5127623;27;41706;-87
2021/07/27 08:01:36;;;;;;;1.17;0.87;;;;;;;28.46;47.05;98784.78;5114355;27;41507;-83
2021/07/27 08:04:05;;;;;;;2.47;1.30;;;;;;;28.15;46.53;98788.97;5131623;27;40353;-84
2021/07/27 08:06:32;;;;;;;1.47;1.17;;;;;;;27.86;46.95;98786.66;5141990;27;42257;-83
2021/07/27 08:09:02;;;;;;;1.07;0.97;;;;;;;27.58;47.97;98775.09;5134071;27;41670;-82
2021/07/27 08:11:29;;;;;;;1.20;1.03;;;;;;;27.44;48.75;98775.06;5151781;27;42472;-87
2021/07/27 08:13:58;;;;;;;1.17;1.07;;;;;;;27.43;49.59;98770.66;5152407;27;40001;-82
2021/07/27 08:16:27;;;;;;;1.27;1.10;;;;;;;27.85;48.55;98782.25;5147516;27;41708;-84
2021/07/27 08:18:55;;;;;;;0.97;0.97;;;;;;;28.16;46.79;98787.09;5132814;27;42896;-86
2021/07/27 08:21:24;;;;;;;1.00;1.00;;;;;;;28.48;46.00;98788.13;5122821;27;41098;-82
2021/07/27 08:23:52;;;;;;;1.60;1.43;;;;;;;28.70;44.71;98786.81;5132954;27;39587;-84
2021/07/27 08:26:21;;;;;;;1.97;1.40;;;;;;;29.27;44.08;98801.56;5134292;27;42124;-84
2021/07/27 08:28:55;;;;;;;1.50;1.33;;;;;;;30.06;43.22;98809.28;5130218;27;42127;-82
2021/07/27 08:31:23;;;;;;;1.53;1.40;;;;;;;31.03;41.42;98807.75;5147686;27;42469;-80
2021/07/27 08:33:51;;;;;;;1.80;1.50;;;;;;;31.74;39.74;98829.00;5129731;27;38946;-85
2021/07/27 08:36:18;;;;;;;1.40;1.30;;;;;;;31.32;39.81;98814.34;5143351;27;41642;-85
2021/07/27 08:38:46;;;;;;;1.97;1.47;;;;;;;31.33;39.22;98824.25;5133549;27;41678;-81
2021/07/27 08:41:16;;;;;;;0.90;0.90;;;;;;;31.13;39.74;98808.09;5134756;27;41335;-81
2021/07/27 08:43:45;;;;;;;1.13;1.03;;;;;;;30.93;40.61;98827.41;5149149;27;39656;-81
2021/07/27 08:46:15;;;;;;;1.30;1.10;;;;;;;30.60;41.47;98805.06;5152258;27;41925;-87
2021/07/27 08:48:44;;;;;;;1.80;1.70;;;;;;;30.28;41.76;98796.94;5129717;27;41689;-86
2021/07/27 08:51:12;;;;;;;1.20;1.20;;;;;;;29.89;42.18;98784.41;5114210;27;42658;-88
2021/07/27 08:53:41;;;;;;;1.30;1.20;;;;;;;29.80;42.61;98798.53;5113516;27;39240;-84
2021/07/27 08:56:08;;;;;;;1.43;1.27;;;;;;;30.03;42.24;98815.22;5128815;27;40679;-79
2021/07/27 08:58:36;;;;;;;1.93;1.20;;;;;;;30.34;42.28;98811.59;5133176;27;43090;-80
2021/07/27 09:01:26;;;;;;;1.50;1.37;;;;;;;30.20;41.83;98804.56;5150830;27;42629;-92
2021/07/27 09:03:55;;;;;;;1.37;1.17;;;;;;;30.22;42.04;98808.75;5128512;27;39147;-87
2021/07/27 09:06:24;;;;;;;1.20;1.10;;;;;;;30.56;42.39;98801.09;5112618;27;41097;-86
2021/07/27 09:09:06;;;;;;;1.63;1.50;;;;;;;30.55;42.08;98785.75;5138160;27;43783;-89
2021/07/27 09:11:43;;;;;;;1.30;1.17;;;;;;;30.49;40.94;98811.25;5151608;27;42220;-89
2021/07/27 09:14:15;;;;;;;1.23;1.07;;;;;;;30.29;42.21;98804.03;5125929;27;40280;-89
2021/07/27 09:16:45;;;;;;;1.60;0.90;;;;;;;30.10;42.54;98813.25;5112721;27;41615;-87
2021/07/27 09:19:13;;;;;;;1.40;1.20;;;;;;;29.91;42.41;98806.88;5119219;27;41641;-85
2021/07/27 09:21:42;;;;;;;1.70;1.60;;;;;;;29.94;42.74;98795.47;5133241;27;42776;-84
2021/07/27 09:24:10;;;;;;;1.10;1.00;;;;;;;30.21;42.75;98818.00;5125945;27;40314;-85
2021/07/27 09:26:38;;;;;;;1.27;1.17;;;;;;;30.33;41.70;98816.22;5130202;27;41811;-83
2021/07/27 09:29:33;;;;;;;1.47;1.20;;;;;;;30.34;40.76;98776.91;5129295;27;41799;-88
2021/07/27 09:32:04;;;;;;;1.30;1.20;;;;;;;30.94;40.26;98829.09;5103951;27;42002;-89
2021/07/27 09:34:32;;;;;;;1.23;1.13;;;;;;;31.03;39.65;98814.03;5133240;27;40359;-84
2021/07/27 09:37:02;;;;;;;1.73;1.50;;;;;;;31.02;39.96;98804.19;5150735;27;42085;-79
2021/07/27 09:39:30;;;;;;;1.33;1.03;;;;;;;31.13;39.30;98826.41;5140626;27;44079;-79
2021/07/27 09:42:02;;;;;;;1.70;1.60;;;;;;;31.05;39.08;98839.28;5112970;27;41567;-83
2021/07/27 09:44:31;;;;;;;1.43;1.30;;;;;;;31.00;39.55;98827.34;5116649;27;40687;-83
2021/07/27 09:47:00;;;;;;;1.30;1.20;;;;;;;30.86;38.91;98832.13;5111444;27;40305;-82
2021/07/27 09:49:30;;;;;;;1.60;1.50;;;;;;;31.05;39.67;98825.59;5112117;27;41752;-84
2021/07/27 09:51:58;;;;;;;1.37;1.20;;;;;;;31.22;39.16;98819.53;5110991;27;42297;-81
2021/07/27 09:54:27;;;;;;;1.20;1.10;;;;;;;31.51;40.21;98818.75;5122820;27;40309;-80
2021/07/27 09:56:56;;;;;;;1.50;1.40;;;;;;;31.61;38.59;98819.03;5132880;27;40783;-82
2021/07/27 09:59:26;;;;;;;1.97;1.47;;;;;;;31.71;37.68;98834.91;5132810;27;41813;-80
2021/07/27 10:01:56;;;;;;;2.23;1.80;;;;;;;31.71;36.81;98851.34;5148565;27;42642;-80
2021/07/27 10:04:31;;;;;;;1.60;1.50;;;;;;;31.74;37.59;98846.25;5148106;27;41658;-78
2021/07/27 10:07:00;;;;;;;1.63;1.53;;;;;;;32.02;38.17;98848.34;5149877;27;42127;-80
2021/07/27 10:09:32;;;;;;;1.47;1.27;;;;;;;32.32;37.81;98847.50;5142833;27;41582;-79
2021/07/27 10:12:07;;;;;;;1.20;1.10;;;;;;;32.57;36.50;98866.47;5142172;27;42598;-80
2021/07/27 10:14:39;;;;;;;2.03;1.40;;;;;;;32.64;35.89;98861.72;5130294;27;39736;-80
2021/07/27 10:17:08;;;;;;;1.43;1.23;;;;;;;32.90;36.31;98869.50;5119451;27;41649;-80
2021/07/27 10:19:42;;;;;;;1.70;1.60;;;;;;;33.18;36.75;98857.78;5128817;27;43543;-79
2021/07/27 10:22:11;;;;;;;1.77;1.67;;;;;;;33.35;35.64;98858.72;5130638;27;41692;-80
2021/07/27 10:24:42;;;;;;;1.50;1.40;;;;;;;33.36;34.97;98827.44;5150152;27;40915;-80
2021/07/27 10:27:16;;;;;;;1.30;1.20;;;;;;;33.81;35.58;98855.00;5149925;27;42032;-79
2021/07/27 10:29:44;;;;;;;1.60;1.50;;;;;;;33.96;35.03;98853.63;5131800;27;42128;-82
2021/07/27 10:32:13;;;;;;;1.63;1.40;;;;;;;34.15;34.86;98869.63;5128689;27;41553;-84
2021/07/27 10:34:43;;;;;;;1.70;1.60;;;;;;;34.44;34.21;98862.19;5111653;27;38923;-88
2021/07/27 10:37:13;;;;;;;1.97;1.67;;;;;;;35.87;31.36;98876.91;5140407;27;42045;-88
2021/07/27 10:39:51;;;;;;;1.90;1.80;;;;;;;36.62;30.45;98883.41;5133076;27;43665;-84
2021/07/27 10:42:24;;;;;;;2.00;1.80;;;;;;;36.78;30.48;98860.38;5129666;27;41312;-82
2021/07/27 10:48:01;;;;;;;1.20;1.20;;;;;;;38.65;26.69;98879.59;5125533;27;41459;-83
2021/07/27 10:52:06;;;;;;;1.40;1.30;;;;;;;37.63;28.42;98864.75;5135880;27;43649;-83
2021/07/27 10:54:57;;;;;;;1.90;1.70;;;;;;;36.24;30.33;98859.63;5143860;27;41820;-79
2021/07/27 10:57:32;;;;;;;1.83;1.73;;;;;;;35.42;30.67;98862.56;5132119;27;40782;-84
2021/07/27 11:00:00;;;;;;;1.47;1.37;;;;;;;34.88;32.77;98829.31;5134165;27;41113;-83
2021/07/27 11:02:28;;;;;;;1.50;1.40;;;;;;;35.01;33.63;98823.44;5141451;27;42301;-82
2021/07/27 11:04:56;;;;;;;2.30;1.87;;;;;;;35.22;31.24;98819.88;5133490;27;41221;-82
2021/07/27 11:07:35;;;;;;;1.40;1.30;;;;;;;35.34;31.40;98844.59;5149207;27;40262;-83
2021/07/27 11:10:04;;;;;;;1.70;1.60;;;;;;;35.26;30.69;98851.34;5117879;27;40715;-87
2021/07/27 11:12:34;;;;;;;1.60;1.50;;;;;;;35.02;30.72;98849.88;5131108;27;41767;-83
2021/07/27 11:15:06;;;;;;;1.80;1.60;;;;;;;34.53;31.33;98848.84;5152873;27;41398;-88
2021/07/27 11:17:35;;;;;;;1.80;1.70;;;;;;;34.11;32.61;98831.91;5134845;27;39171;-83
2021/07/27 11:20:03;;;;;;;1.40;1.30;;;;;;;33.65;32.95;98794.47;5126033;27;41730;-85
2021/07/27 11:22:31;;;;;;;1.60;1.50;;;;;;;33.62;33.16;98812.31;5152241;27;42984;-81
2021/07/27 11:25:00;;;;;;;1.73;1.63;;;;;;;33.63;33.22;98824.94;5143843;27;43113;-79
2021/07/27 11:27:29;;;;;;;1.87;1.77;;;;;;;33.66;32.73;98810.72;5145559;27;40213;-88
2021/07/27 11:29:58;;;;;;;1.50;1.40;;;;;;;33.86;32.00;98810.31;5134970;27;42479;-87
2021/07/27 11:32:37;;;;;;;1.40;1.30;;;;;;;34.22;32.90;98817.25;5152814;27;43003;-85
2021/07/27 11:35:05;;;;;;;1.37;1.27;;;;;;;34.43;32.58;98808.28;5138364;27;41538;-91
2021/07/27 11:37:33;;;;;;;1.40;1.30;;;;;;;34.42;32.85;98792.84;5154405;27;40387;-87
2021/07/27 11:40:06;;;;;;;1.73;1.63;;;;;;;34.42;31.45;98825.03;5132493;27;41366;-86
2021/07/27 11:42:35;;;;;;;1.33;1.23;;;;;;;34.33;32.45;98815.53;5135450;27;42025;-84
2021/07/27 11:45:04;;;;;;;1.67;1.57;;;;;;;34.09;32.40;98814.84;5145232;27;43093;-85
2021/07/27 11:47:43;;;;;;;1.40;1.30;;;;;;;33.73;32.70;98800.44;5152068;27;40806;-82
2021/07/27 11:50:14;;;;;;;1.43;1.37;;;;;;;33.65;32.90;98814.53;5135001;27;41784;-83
2021/07/27 11:52:43;;;;;;;1.77;1.67;;;;;;;33.62;32.85;98805.97;5150219;27;43269;-81
2021/07/27 11:55:13;;;;;;;1.50;1.40;;;;;;;33.53;33.32;98794.53;5148197;27;42512;-84
2021/07/27 11:57:51;;;;;;;1.70;1.40;;;;;;;33.77;32.60;98789.78;5140722;27;38826;-82
2021/07/27 12:00:20;;;;;;;1.50;1.40;;;;;;;33.99;32.64;98811.91;5116007;27;41481;-84
2021/07/27 12:02:49;;;;;;;2.03;1.30;;;;;;;34.00;32.16;98791.59;5148745;27;43653;-82
2021/07/27 12:05:16;;;;;;;1.57;1.40;;;;;;;34.11;34.19;98798.94;5150256;27;42965;-78
2021/07/27 12:07:45;;;;;;;1.57;1.40;;;;;;;33.80;32.18;98778.31;5134217;27;39908;-78